sensor_id;sensor_type;location;lat;lon;timestamp;P1;durP1;ratioP1;P2;durP2;ratioP2
3563;SDS011;1796;52.388;13.096;2023-11-21T00:02:17;2.30;;;2.10;;
3563;SDS011;1796;52.388;13.096;2023-11-21T00:04:44;3.33;;;1.90;;
3563;SDS011;1796;52.388;13.096;2023-11-21T00:07:12;7.43;;;2.10;;
3563;SDS011;1796;52.388;13.096;2023-11-21T00:09:39;4.20;;;2.37;;
3563;SDS011;1796;52.388;13.096;2023-11-21T00:12:06;2.60;;;2.00;;
3563;SDS011;1796;52.388;13.096;2023-11-21T00:14:35;1.83;;;1.73;;
3563;SDS011;1796;52.388;13.096;2023-11-21T00:17:02;2.53;;;2.33;;
3563;SDS011;1796;52.388;13.096;2023-11-21T00:19:30;2.70;;;1.77;;
3563;SDS011;1796;52.388;13.096;2023-11-21T00:21:58;6.43;;;1.83;;
3563;SDS011;1796;52.388;13.096;2023-11-21T00:24:25;3.27;;;1.53;;
3563;SDS011;1796;52.388;13.096;2023-11-21T00:26:52;2.17;;;2.07;;
3563;SDS011;1796;52.388;13.096;2023-11-21T00:29:19;2.53;;;2.03;;
3563;SDS011;1796;52.388;13.096;2023-11-21T00:31:46;2.30;;;2.20;;
3563;SDS011;1796;52.388;13.096;2023-11-21T00:34:13;6.20;;;1.97;;
3563;SDS011;1796;52.388;13.096;2023-11-21T00:36:41;1.77;;;1.67;;
3563;SDS011;1796;52.388;13.096;2023-11-21T00:39:08;1.80;;;1.70;;
3563;SDS011;1796;52.388;13.096;2023-11-21T00:41:36;1.43;;;1.43;;
3563;SDS011;1796;52.388;13.096;2023-11-21T00:44:03;3.00;;;1.80;;
3563;SDS011;1796;52.388;13.096;2023-11-21T00:46:31;1.57;;;1.50;;
3563;SDS011;1796;52.388;13.096;2023-11-21T00:48:58;1.90;;;1.77;;
3563;SDS011;1796;52.388;13.096;2023-11-21T00:51:25;3.07;;;2.30;;
3563;SDS011;1796;52.388;13.096;2023-11-21T00:53:53;3.43;;;2.73;;
3563;SDS011;1796;52.388;13.096;2023-11-21T00:56:20;3.50;;;3.17;;
3563;SDS011;1796;52.388;13.096;2023-11-21T00:58:47;5.43;;;3.80;;
3563;SDS011;1796;52.388;13.096;2023-11-21T01:01:17;5.00;;;4.10;;
3563;SDS011;1796;52.388;13.096;2023-11-21T01:03:45;7.97;;;4.60;;
3563;SDS011;1796;52.388;13.096;2023-11-21T01:06:12;9.83;;;5.67;;
3563;SDS011;1796;52.388;13.096;2023-11-21T01:08:39;9.07;;;5.67;;
3563;SDS011;1796;52.388;13.096;2023-11-21T01:11:08;11.30;;;7.73;;
3563;SDS011;1796;52.388;13.096;2023-11-21T01:13:37;12.50;;;7.43;;
3563;SDS011;1796;52.388;13.096;2023-11-21T01:16:04;20.70;;;9.17;;
3563;SDS011;1796;52.388;13.096;2023-11-21T01:18:32;14.63;;;8.20;;
3563;SDS011;1796;52.388;13.096;2023-11-21T01:21:00;20.90;;;9.67;;
3563;SDS011;1796;52.388;13.096;2023-11-21T01:23:27;17.40;;;7.80;;
3563;SDS011;1796;52.388;13.096;2023-11-21T01:25:55;23.60;;;9.37;;
3563;SDS011;1796;52.388;13.096;2023-11-21T01:28:24;19.00;;;10.13;;
3563;SDS011;1796;52.388;13.096;2023-11-21T01:30:51;19.57;;;10.53;;
3563;SDS011;1796;52.388;13.096;2023-11-21T01:33:21;28.67;;;10.93;;
3563;SDS011;1796;52.388;13.096;2023-11-21T01:35:50;30.83;;;10.93;;
3563;SDS011;1796;52.388;13.096;2023-11-21T01:38:19;32.07;;;10.70;;
3563;SDS011;1796;52.388;13.096;2023-11-21T01:40:45;30.37;;;10.90;;
3563;SDS011;1796;52.388;13.096;2023-11-21T01:43:12;32.87;;;10.97;;
3563;SDS011;1796;52.388;13.096;2023-11-21T01:45:41;28.63;;;10.20;;
3563;SDS011;1796;52.388;13.096;2023-11-21T01:48:07;26.57;;;11.60;;
3563;SDS011;1796;52.388;13.096;2023-11-21T01:50:35;24.20;;;10.70;;
3563;SDS011;1796;52.388;13.096;2023-11-21T01:53:02;19.27;;;10.27;;
3563;SDS011;1796;52.388;13.096;2023-11-21T01:55:29;20.73;;;10.37;;
3563;SDS011;1796;52.388;13.096;2023-11-21T01:57:56;33.63;;;10.20;;
3563;SDS011;1796;52.388;13.096;2023-11-21T02:00:24;25.70;;;9.93;;
3563;SDS011;1796;52.388;13.096;2023-11-21T02:02:54;25.27;;;10.53;;
3563;SDS011;1796;52.388;13.096;2023-11-21T02:05:21;20.87;;;8.47;;
3563;SDS011;1796;52.388;13.096;2023-11-21T02:07:48;16.13;;;8.30;;
3563;SDS011;1796;52.388;13.096;2023-11-21T02:10:18;19.87;;;9.07;;
3563;SDS011;1796;52.388;13.096;2023-11-21T02:12:47;21.43;;;9.03;;
3563;SDS011;1796;52.388;13.096;2023-11-21T02:15:15;32.73;;;9.50;;
3563;SDS011;1796;52.388;13.096;2023-11-21T02:17:45;28.27;;;10.23;;
3563;SDS011;1796;52.388;13.096;2023-11-21T02:20:13;22.90;;;8.90;;
3563;SDS011;1796;52.388;13.096;2023-11-21T02:22:43;16.03;;;8.97;;
3563;SDS011;1796;52.388;13.096;2023-11-21T02:25:18;16.40;;;8.73;;
3563;SDS011;1796;52.388;13.096;2023-11-21T02:27:44;18.00;;;8.10;;
3563;SDS011;1796;52.388;13.096;2023-11-21T02:30:13;18.93;;;9.93;;
3563;SDS011;1796;52.388;13.096;2023-11-21T02:32:41;20.60;;;9.80;;
3563;SDS011;1796;52.388;13.096;2023-11-21T02:35:09;18.27;;;9.23;;
3563;SDS011;1796;52.388;13.096;2023-11-21T02:37:37;15.43;;;7.70;;
3563;SDS011;1796;52.388;13.096;2023-11-21T02:40:08;18.73;;;8.03;;
3563;SDS011;1796;52.388;13.096;2023-11-21T02:42:37;12.83;;;7.57;;
3563;SDS011;1796;52.388;13.096;2023-11-21T02:45:05;20.80;;;7.60;;
3563;SDS011;1796;52.388;13.096;2023-11-21T02:47:33;14.07;;;7.90;;
3563;SDS011;1796;52.388;13.096;2023-11-21T02:50:00;11.57;;;6.23;;
3563;SDS011;1796;52.388;13.096;2023-11-21T02:52:27;9.97;;;6.90;;
3563;SDS011;1796;52.388;13.096;2023-11-21T02:54:53;8.40;;;6.20;;
3563;SDS011;1796;52.388;13.096;2023-11-21T02:57:22;7.07;;;5.93;;
3563;SDS011;1796;52.388;13.096;2023-11-21T02:59:49;8.03;;;6.10;;
3563;SDS011;1796;52.388;13.096;2023-11-21T03:02:16;7.30;;;5.87;;
3563;SDS011;1796;52.388;13.096;2023-11-21T03:04:43;11.00;;;6.53;;
3563;SDS011;1796;52.388;13.096;2023-11-21T03:07:10;9.23;;;6.10;;
3563;SDS011;1796;52.388;13.096;2023-11-21T03:09:37;8.50;;;6.40;;
3563;SDS011;1796;52.388;13.096;2023-11-21T03:12:04;10.73;;;6.60;;
3563;SDS011;1796;52.388;13.096;2023-11-21T03:14:33;7.83;;;6.23;;
3563;SDS011;1796;52.388;13.096;2023-11-21T03:17:00;5.73;;;5.23;;
3563;SDS011;1796;52.388;13.096;2023-11-21T03:19:29;7.10;;;6.30;;
3563;SDS011;1796;52.388;13.096;2023-11-21T03:21:56;10.97;;;6.60;;
3563;SDS011;1796;52.388;13.096;2023-11-21T03:24:23;8.73;;;6.27;;
3563;SDS011;1796;52.388;13.096;2023-11-21T03:26:52;12.63;;;7.70;;
3563;SDS011;1796;52.388;13.096;2023-11-21T03:29:21;9.57;;;6.87;;
3563;SDS011;1796;52.388;13.096;2023-11-21T03:31:50;14.53;;;7.63;;
3563;SDS011;1796;52.388;13.096;2023-11-21T03:34:22;14.30;;;7.13;;
3563;SDS011;1796;52.388;13.096;2023-11-21T03:36:50;8.27;;;6.60;;
3563;SDS011;1796;52.388;13.096;2023-11-21T03:39:18;10.60;;;7.00;;
3563;SDS011;1796;52.388;13.096;2023-11-21T03:41:45;13.50;;;9.00;;
3563;SDS011;1796;52.388;13.096;2023-11-21T03:44:12;9.30;;;7.70;;
3563;SDS011;1796;52.388;13.096;2023-11-21T03:46:40;9.03;;;8.13;;
3563;SDS011;1796;52.388;13.096;2023-11-21T03:49:08;15.80;;;10.17;;
3563;SDS011;1796;52.388;13.096;2023-11-21T03:51:35;9.03;;;7.93;;
3563;SDS011;1796;52.388;13.096;2023-11-21T03:54:03;12.33;;;8.47;;
3563;SDS011;1796;52.388;13.096;2023-11-21T03:56:30;10.90;;;8.30;;
3563;SDS011;1796;52.388;13.096;2023-11-21T03:58:57;17.87;;;10.20;;
3563;SDS011;1796;52.388;13.096;2023-11-21T04:01:24;11.40;;;8.43;;
3563;SDS011;1796;52.388;13.096;2023-11-21T04:03:51;12.10;;;9.27;;
3563;SDS011;1796;52.388;13.096;2023-11-21T04:06:19;13.70;;;9.70;;
3563;SDS011;1796;52.388;13.096;2023-11-21T04:08:46;13.53;;;8.37;;
3563;SDS011;1796;52.388;13.096;2023-11-21T04:11:13;11.83;;;8.40;;
3563;SDS011;1796;52.388;13.096;2023-11-21T04:13:39;13.77;;;8.60;;
3563;SDS011;1796;52.388;13.096;2023-11-21T04:16:07;14.03;;;8.27;;
3563;SDS011;1796;52.388;13.096;2023-11-21T04:18:35;12.60;;;9.50;;
3563;SDS011;1796;52.388;13.096;2023-11-21T04:21:02;13.30;;;8.47;;
3563;SDS011;1796;52.388;13.096;2023-11-21T04:23:31;12.93;;;8.40;;
3563;SDS011;1796;52.388;13.096;2023-11-21T04:25:58;10.60;;;7.67;;
3563;SDS011;1796;52.388;13.096;2023-11-21T04:28:25;13.37;;;9.10;;
3563;SDS011;1796;52.388;13.096;2023-11-21T04:30:52;13.90;;;9.37;;
3563;SDS011;1796;52.388;13.096;2023-11-21T04:33:19;9.80;;;7.70;;
3563;SDS011;1796;52.388;13.096;2023-11-21T04:35:46;13.03;;;9.47;;
3563;SDS011;1796;52.388;13.096;2023-11-21T04:38:13;11.27;;;8.90;;
3563;SDS011;1796;52.388;13.096;2023-11-21T04:40:41;12.37;;;9.00;;
3563;SDS011;1796;52.388;13.096;2023-11-21T04:43:08;13.13;;;8.80;;
3563;SDS011;1796;52.388;13.096;2023-11-21T04:45:35;11.43;;;8.47;;
3563;SDS011;1796;52.388;13.096;2023-11-21T04:48:02;11.53;;;8.30;;
3563;SDS011;1796;52.388;13.096;2023-11-21T04:50:30;9.80;;;8.17;;
3563;SDS011;1796;52.388;13.096;2023-11-21T04:52:57;12.37;;;8.47;;
3563;SDS011;1796;52.388;13.096;2023-11-21T04:55:24;11.87;;;8.07;;
3563;SDS011;1796;52.388;13.096;2023-11-21T04:57:54;12.47;;;7.97;;
3563;SDS011;1796;52.388;13.096;2023-11-21T05:00:21;13.20;;;9.27;;
3563;SDS011;1796;52.388;13.096;2023-11-21T05:02:48;18.40;;;8.67;;
3563;SDS011;1796;52.388;13.096;2023-11-21T05:05:15;14.40;;;8.97;;
3563;SDS011;1796;52.388;13.096;2023-11-21T05:07:42;11.30;;;8.63;;
3563;SDS011;1796;52.388;13.096;2023-11-21T05:10:09;11.17;;;8.73;;
3563;SDS011;1796;52.388;13.096;2023-11-21T05:12:37;12.70;;;8.40;;
3563;SDS011;1796;52.388;13.096;2023-11-21T05:15:06;10.40;;;8.00;;
3563;SDS011;1796;52.388;13.096;2023-11-21T05:17:36;11.90;;;8.83;;
3563;SDS011;1796;52.388;13.096;2023-11-21T05:20:04;12.63;;;8.73;;
3563;SDS011;1796;52.388;13.096;2023-11-21T05:22:33;14.00;;;8.03;;
3563;SDS011;1796;52.388;13.096;2023-11-21T05:25:01;13.40;;;9.43;;
3563;SDS011;1796;52.388;13.096;2023-11-21T05:27:28;12.97;;;8.77;;
3563;SDS011;1796;52.388;13.096;2023-11-21T05:29:55;12.90;;;7.90;;
3563;SDS011;1796;52.388;13.096;2023-11-21T05:32:24;12.50;;;8.00;;
3563;SDS011;1796;52.388;13.096;2023-11-21T05:34:51;14.70;;;9.20;;
3563;SDS011;1796;52.388;13.096;2023-11-21T05:37:18;14.50;;;8.53;;
3563;SDS011;1796;52.388;13.096;2023-11-21T05:39:45;11.27;;;8.30;;
3563;SDS011;1796;52.388;13.096;2023-11-21T05:42:12;14.00;;;8.63;;
3563;SDS011;1796;52.388;13.096;2023-11-21T05:44:40;13.60;;;8.97;;
3563;SDS011;1796;52.388;13.096;2023-11-21T05:47:08;9.47;;;7.23;;
3563;SDS011;1796;52.388;13.096;2023-11-21T05:49:36;13.57;;;8.30;;
3563;SDS011;1796;52.388;13.096;2023-11-21T05:52:03;12.03;;;7.90;;
3563;SDS011;1796;52.388;13.096;2023-11-21T05:54:31;11.30;;;7.17;;
3563;SDS011;1796;52.388;13.096;2023-11-21T05:56:58;12.23;;;8.67;;
3563;SDS011;1796;52.388;13.096;2023-11-21T05:59:25;10.07;;;7.70;;
3563;SDS011;1796;52.388;13.096;2023-11-21T06:01:52;11.93;;;8.40;;
3563;SDS011;1796;52.388;13.096;2023-11-21T06:04:19;13.93;;;9.00;;
3563;SDS011;1796;52.388;13.096;2023-11-21T06:06:50;10.63;;;7.70;;
3563;SDS011;1796;52.388;13.096;2023-11-21T06:09:17;12.90;;;8.10;;
3563;SDS011;1796;52.388;13.096;2023-11-21T06:11:44;13.07;;;8.70;;
3563;SDS011;1796;52.388;13.096;2023-11-21T06:14:11;12.80;;;8.40;;
3563;SDS011;1796;52.388;13.096;2023-11-21T06:16:37;12.67;;;8.50;;
3563;SDS011;1796;52.388;13.096;2023-11-21T06:19:05;11.87;;;8.53;;
3563;SDS011;1796;52.388;13.096;2023-11-21T06:21:32;10.90;;;8.07;;
3563;SDS011;1796;52.388;13.096;2023-11-21T06:24:01;16.90;;;8.57;;
3563;SDS011;1796;52.388;13.096;2023-11-21T06:26:28;11.60;;;8.27;;
3563;SDS011;1796;52.388;13.096;2023-11-21T06:28:56;12.10;;;8.20;;
3563;SDS011;1796;52.388;13.096;2023-11-21T06:31:23;13.10;;;8.97;;
3563;SDS011;1796;52.388;13.096;2023-11-21T06:33:50;15.37;;;9.17;;
3563;SDS011;1796;52.388;13.096;2023-11-21T06:36:17;14.00;;;9.70;;
3563;SDS011;1796;52.388;13.096;2023-11-21T06:38:44;12.03;;;8.50;;
3563;SDS011;1796;52.388;13.096;2023-11-21T06:41:13;12.57;;;8.70;;
3563;SDS011;1796;52.388;13.096;2023-11-21T06:43:41;14.30;;;8.87;;
3563;SDS011;1796;52.388;13.096;2023-11-21T06:46:11;13.67;;;9.60;;
3563;SDS011;1796;52.388;13.096;2023-11-21T06:48:39;11.70;;;7.93;;
3563;SDS011;1796;52.388;13.096;2023-11-21T06:51:06;13.27;;;8.13;;
3563;SDS011;1796;52.388;13.096;2023-11-21T06:53:33;12.90;;;7.70;;
3563;SDS011;1796;52.388;13.096;2023-11-21T06:56:01;9.67;;;7.57;;
3563;SDS011;1796;52.388;13.096;2023-11-21T06:58:30;6.80;;;6.00;;
3563;SDS011;1796;52.388;13.096;2023-11-21T07:00:56;12.27;;;7.37;;
3563;SDS011;1796;52.388;13.096;2023-11-21T07:03:23;11.67;;;7.37;;
3563;SDS011;1796;52.388;13.096;2023-11-21T07:05:51;9.97;;;6.67;;
3563;SDS011;1796;52.388;13.096;2023-11-21T07:08:18;9.00;;;6.50;;
3563;SDS011;1796;52.388;13.096;2023-11-21T07:10:44;12.43;;;6.90;;
3563;SDS011;1796;52.388;13.096;2023-11-21T07:13:12;11.97;;;7.77;;
3563;SDS011;1796;52.388;13.096;2023-11-21T07:15:40;10.90;;;8.07;;
3563;SDS011;1796;52.388;13.096;2023-11-21T07:18:08;11.97;;;7.17;;
3563;SDS011;1796;52.388;13.096;2023-11-21T07:20:35;8.60;;;6.57;;
3563;SDS011;1796;52.388;13.096;2023-11-21T07:23:02;9.70;;;7.43;;
3563;SDS011;1796;52.388;13.096;2023-11-21T07:25:30;7.77;;;6.00;;
3563;SDS011;1796;52.388;13.096;2023-11-21T07:27:58;8.00;;;5.90;;
3563;SDS011;1796;52.388;13.096;2023-11-21T07:30:26;6.87;;;6.07;;
3563;SDS011;1796;52.388;13.096;2023-11-21T07:32:54;5.10;;;4.60;;
3563;SDS011;1796;52.388;13.096;2023-11-21T07:35:21;7.80;;;5.17;;
3563;SDS011;1796;52.388;13.096;2023-11-21T07:37:48;6.10;;;4.20;;
3563;SDS011;1796;52.388;13.096;2023-11-21T07:40:15;5.90;;;4.40;;
3563;SDS011;1796;52.388;13.096;2023-11-21T07:42:43;7.50;;;5.00;;
3563;SDS011;1796;52.388;13.096;2023-11-21T07:45:10;6.60;;;5.17;;
3563;SDS011;1796;52.388;13.096;2023-11-21T07:47:37;5.50;;;4.50;;
3563;SDS011;1796;52.388;13.096;2023-11-21T07:50:07;8.03;;;5.20;;
3563;SDS011;1796;52.388;13.096;2023-11-21T07:52:35;4.50;;;4.10;;
3563;SDS011;1796;52.388;13.096;2023-11-21T07:55:02;6.27;;;4.30;;
3563;SDS011;1796;52.388;13.096;2023-11-21T07:57:29;6.43;;;4.43;;
3563;SDS011;1796;52.388;13.096;2023-11-21T07:59:56;6.80;;;5.00;;
3563;SDS011;1796;52.388;13.096;2023-11-21T08:02:22;8.67;;;4.70;;
3563;SDS011;1796;52.388;13.096;2023-11-21T08:04:51;5.23;;;4.33;;
3563;SDS011;1796;52.388;13.096;2023-11-21T08:07:19;5.83;;;4.50;;
3563;SDS011;1796;52.388;13.096;2023-11-21T08:09:46;4.90;;;4.50;;
3563;SDS011;1796;52.388;13.096;2023-11-21T08:12:15;5.10;;;4.60;;
3563;SDS011;1796;52.388;13.096;2023-11-21T08:14:42;7.37;;;4.13;;
3563;SDS011;1796;52.388;13.096;2023-11-21T08:17:09;10.80;;;5.20;;
3563;SDS011;1796;52.388;13.096;2023-11-21T08:19:36;5.23;;;4.70;;
3563;SDS011;1796;52.388;13.096;2023-11-21T08:22:03;7.40;;;5.10;;
3563;SDS011;1796;52.388;13.096;2023-11-21T08:24:34;4.17;;;3.43;;
3563;SDS011;1796;52.388;13.096;2023-11-21T08:27:02;4.33;;;3.77;;
3563;SDS011;1796;52.388;13.096;2023-11-21T08:29:30;7.47;;;4.40;;
3563;SDS011;1796;52.388;13.096;2023-11-21T08:31:57;5.07;;;4.57;;
3563;SDS011;1796;52.388;13.096;2023-11-21T08:34:25;5.30;;;3.97;;
3563;SDS011;1796;52.388;13.096;2023-11-21T08:36:51;5.47;;;4.30;;
3563;SDS011;1796;52.388;13.096;2023-11-21T08:39:18;3.33;;;3.03;;
3563;SDS011;1796;52.388;13.096;2023-11-21T08:41:46;3.40;;;3.10;;
3563;SDS011;1796;52.388;13.096;2023-11-21T08:44:13;4.63;;;4.10;;
3563;SDS011;1796;52.388;13.096;2023-11-21T08:46:41;8.90;;;4.30;;
3563;SDS011;1796;52.388;13.096;2023-11-21T08:49:10;6.60;;;4.03;;
3563;SDS011;1796;52.388;13.096;2023-11-21T08:51:37;6.17;;;3.80;;
3563;SDS011;1796;52.388;13.096;2023-11-21T08:54:04;3.90;;;3.57;;
3563;SDS011;1796;52.388;13.096;2023-11-21T08:56:33;3.80;;;3.37;;
3563;SDS011;1796;52.388;13.096;2023-11-21T08:59:01;4.00;;;3.33;;
3563;SDS011;1796;52.388;13.096;2023-11-21T09:01:28;3.57;;;3.30;;
3563;SDS011;1796;52.388;13.096;2023-11-21T09:03:56;3.00;;;2.90;;
3563;SDS011;1796;52.388;13.096;2023-11-21T09:06:24;3.57;;;3.27;;
3563;SDS011;1796;52.388;13.096;2023-11-21T09:08:50;5.70;;;3.97;;
3563;SDS011;1796;52.388;13.096;2023-11-21T09:11:17;4.43;;;4.07;;
3563;SDS011;1796;52.388;13.096;2023-11-21T09:13:44;5.00;;;4.53;;
3563;SDS011;1796;52.388;13.096;2023-11-21T09:16:13;9.23;;;5.17;;
3563;SDS011;1796;52.388;13.096;2023-11-21T09:18:40;4.73;;;4.03;;
3563;SDS011;1796;52.388;13.096;2023-11-21T09:21:07;5.07;;;3.57;;
3563;SDS011;1796;52.388;13.096;2023-11-21T09:23:35;4.30;;;3.90;;
3563;SDS011;1796;52.388;13.096;2023-11-21T09:26:02;3.67;;;3.47;;
3563;SDS011;1796;52.388;13.096;2023-11-21T09:28:30;4.30;;;3.90;;
3563;SDS011;1796;52.388;13.096;2023-11-21T09:30:57;5.60;;;3.87;;
3563;SDS011;1796;52.388;13.096;2023-11-21T09:33:25;4.23;;;3.87;;
3563;SDS011;1796;52.388;13.096;2023-11-21T09:35:52;3.67;;;3.47;;
3563;SDS011;1796;52.388;13.096;2023-11-21T09:38:19;3.60;;;3.30;;
3563;SDS011;1796;52.388;13.096;2023-11-21T09:40:46;3.60;;;3.40;;
3563;SDS011;1796;52.388;13.096;2023-11-21T09:43:15;3.60;;;3.30;;
3563;SDS011;1796;52.388;13.096;2023-11-21T09:45:45;4.03;;;3.60;;
3563;SDS011;1796;52.388;13.096;2023-11-21T09:48:13;3.73;;;3.43;;
3563;SDS011;1796;52.388;13.096;2023-11-21T09:50:43;3.30;;;3.10;;
3563;SDS011;1796;52.388;13.096;2023-11-21T09:53:13;3.47;;;3.17;;
3563;SDS011;1796;52.388;13.096;2023-11-21T09:55:44;5.00;;;3.97;;
3563;SDS011;1796;52.388;13.096;2023-11-21T09:58:13;3.13;;;2.83;;
3563;SDS011;1796;52.388;13.096;2023-11-21T10:00:40;3.67;;;3.40;;
3563;SDS011;1796;52.388;13.096;2023-11-21T10:03:08;2.80;;;2.60;;
3563;SDS011;1796;52.388;13.096;2023-11-21T10:05:36;3.20;;;2.87;;
3563;SDS011;1796;52.388;13.096;2023-11-21T10:08:07;4.83;;;2.87;;
3563;SDS011;1796;52.388;13.096;2023-11-21T10:10:35;3.37;;;3.07;;
3563;SDS011;1796;52.388;13.096;2023-11-21T10:13:06;3.50;;;3.30;;
3563;SDS011;1796;52.388;13.096;2023-11-21T10:15:35;3.20;;;3.00;;
3563;SDS011;1796;52.388;13.096;2023-11-21T10:18:04;3.13;;;2.83;;
3563;SDS011;1796;52.388;13.096;2023-11-21T10:20:34;4.03;;;3.73;;
3563;SDS011;1796;52.388;13.096;2023-11-21T10:23:03;3.37;;;3.10;;
3563;SDS011;1796;52.388;13.096;2023-11-21T10:25:33;3.07;;;2.90;;
3563;SDS011;1796;52.388;13.096;2023-11-21T10:28:02;2.97;;;2.77;;
3563;SDS011;1796;52.388;13.096;2023-11-21T10:30:32;3.83;;;3.10;;
3563;SDS011;1796;52.388;13.096;2023-11-21T10:33:02;4.63;;;2.77;;
3563;SDS011;1796;52.388;13.096;2023-11-21T10:35:39;3.40;;;3.10;;
3563;SDS011;1796;52.388;13.096;2023-11-21T10:38:12;5.43;;;2.80;;
3563;SDS011;1796;52.388;13.096;2023-11-21T10:40:40;9.60;;;4.00;;
3563;SDS011;1796;52.388;13.096;2023-11-21T10:43:11;2.97;;;2.77;;
3563;SDS011;1796;52.388;13.096;2023-11-21T10:45:40;3.10;;;2.80;;
3563;SDS011;1796;52.388;13.096;2023-11-21T10:48:07;6.23;;;3.37;;
3563;SDS011;1796;52.388;13.096;2023-11-21T10:50:36;3.57;;;3.27;;
3563;SDS011;1796;52.388;13.096;2023-11-21T10:53:03;3.23;;;3.03;;
3563;SDS011;1796;52.388;13.096;2023-11-21T10:55:31;3.73;;;3.40;;
3563;SDS011;1796;52.388;13.096;2023-11-21T10:58:00;2.60;;;2.50;;
3563;SDS011;1796;52.388;13.096;2023-11-21T11:00:29;3.43;;;3.13;;
3563;SDS011;1796;52.388;13.096;2023-11-21T11:02:57;2.80;;;2.60;;
3563;SDS011;1796;52.388;13.096;2023-11-21T11:05:25;3.27;;;2.97;;
3563;SDS011;1796;52.388;13.096;2023-11-21T11:07:56;5.13;;;3.20;;
3563;SDS011;1796;52.388;13.096;2023-11-21T11:10:26;3.40;;;3.20;;
3563;SDS011;1796;52.388;13.096;2023-11-21T11:12:54;5.40;;;3.30;;
3563;SDS011;1796;52.388;13.096;2023-11-21T11:15:23;4.03;;;3.73;;
3563;SDS011;1796;52.388;13.096;2023-11-21T11:17:51;3.60;;;3.40;;
3563;SDS011;1796;52.388;13.096;2023-11-21T11:20:22;3.20;;;3.07;;
3563;SDS011;1796;52.388;13.096;2023-11-21T11:22:53;4.20;;;3.60;;
3563;SDS011;1796;52.388;13.096;2023-11-21T11:25:34;3.63;;;3.33;;
3563;SDS011;1796;52.388;13.096;2023-11-21T11:28:12;4.17;;;3.73;;
3563;SDS011;1796;52.388;13.096;2023-11-21T11:30:47;4.20;;;3.30;;
3563;SDS011;1796;52.388;13.096;2023-11-21T11:33:26;4.07;;;3.70;;
3563;SDS011;1796;52.388;13.096;2023-11-21T11:36:05;3.70;;;3.40;;
3563;SDS011;1796;52.388;13.096;2023-11-21T11:38:34;3.50;;;3.30;;
3563;SDS011;1796;52.388;13.096;2023-11-21T11:41:01;4.80;;;4.30;;
3563;SDS011;1796;52.388;13.096;2023-11-21T11:43:30;4.03;;;3.73;;
3563;SDS011;1796;52.388;13.096;2023-11-21T11:45:59;4.00;;;3.70;;
3563;SDS011;1796;52.388;13.096;2023-11-21T11:48:29;6.13;;;4.30;;
3563;SDS011;1796;52.388;13.096;2023-11-21T11:51:02;3.90;;;3.60;;
3563;SDS011;1796;52.388;13.096;2023-11-21T11:53:37;5.23;;;3.77;;
3563;SDS011;1796;52.388;13.096;2023-11-21T11:56:25;4.97;;;3.70;;
3563;SDS011;1796;52.388;13.096;2023-11-21T11:58:55;6.20;;;3.67;;
3563;SDS011;1796;52.388;13.096;2023-11-21T12:01:25;6.60;;;3.97;;
3563;SDS011;1796;52.388;13.096;2023-11-21T12:06:56;7.10;;;3.30;;
3563;SDS011;1796;52.388;13.096;2023-11-21T12:09:27;6.10;;;3.23;;
3563;SDS011;1796;52.388;13.096;2023-11-21T12:11:56;4.40;;;3.40;;
3563;SDS011;1796;52.388;13.096;2023-11-21T12:14:23;4.63;;;3.47;;
3563;SDS011;1796;52.388;13.096;2023-11-21T12:16:52;4.20;;;3.80;;
3563;SDS011;1796;52.388;13.096;2023-11-21T12:19:22;8.00;;;4.23;;
3563;SDS011;1796;52.388;13.096;2023-11-21T12:21:49;4.10;;;3.47;;
3563;SDS011;1796;52.388;13.096;2023-11-21T12:24:17;4.80;;;3.70;;
3563;SDS011;1796;52.388;13.096;2023-11-21T12:26:44;4.10;;;3.80;;
3563;SDS011;1796;52.388;13.096;2023-11-21T12:29:11;4.10;;;3.80;;
3563;SDS011;1796;52.388;13.096;2023-11-21T12:31:38;5.17;;;4.23;;
3563;SDS011;1796;52.388;13.096;2023-11-21T12:34:07;7.53;;;4.33;;
3563;SDS011;1796;52.388;13.096;2023-11-21T12:36:36;8.77;;;4.70;;
3563;SDS011;1796;52.388;13.096;2023-11-21T12:39:03;5.30;;;4.17;;
3563;SDS011;1796;52.388;13.096;2023-11-21T12:41:31;10.03;;;5.00;;
3563;SDS011;1796;52.388;13.096;2023-11-21T12:44:01;4.63;;;4.23;;
3563;SDS011;1796;52.388;13.096;2023-11-21T12:46:36;5.83;;;5.20;;
3563;SDS011;1796;52.388;13.096;2023-11-21T12:49:11;7.50;;;4.90;;
3563;SDS011;1796;52.388;13.096;2023-11-21T12:51:42;8.50;;;5.30;;
3563;SDS011;1796;52.388;13.096;2023-11-21T12:54:10;5.73;;;4.60;;
3563;SDS011;1796;52.388;13.096;2023-11-21T12:56:38;5.93;;;4.97;;
3563;SDS011;1796;52.388;13.096;2023-11-21T12:59:05;4.90;;;4.50;;
3563;SDS011;1796;52.388;13.096;2023-11-21T13:01:32;11.83;;;5.70;;
3563;SDS011;1796;52.388;13.096;2023-11-21T13:04:04;5.63;;;4.27;;
3563;SDS011;1796;52.388;13.096;2023-11-21T13:06:37;8.17;;;4.80;;
3563;SDS011;1796;52.388;13.096;2023-11-21T13:09:06;6.83;;;5.53;;
3563;SDS011;1796;52.388;13.096;2023-11-21T13:11:35;4.87;;;4.27;;
3563;SDS011;1796;52.388;13.096;2023-11-21T13:14:05;8.10;;;4.30;;
3563;SDS011;1796;52.388;13.096;2023-11-21T13:16:32;5.20;;;4.00;;
3563;SDS011;1796;52.388;13.096;2023-11-21T13:18:59;6.13;;;3.57;;
3563;SDS011;1796;52.388;13.096;2023-11-21T13:21:26;7.53;;;4.00;;
3563;SDS011;1796;52.388;13.096;2023-11-21T13:23:55;11.77;;;5.43;;
3563;SDS011;1796;52.388;13.096;2023-11-21T13:26:22;9.10;;;4.70;;
3563;SDS011;1796;52.388;13.096;2023-11-21T13:28:50;13.00;;;5.80;;
3563;SDS011;1796;52.388;13.096;2023-11-21T13:31:18;12.80;;;6.67;;
3563;SDS011;1796;52.388;13.096;2023-11-21T13:33:51;10.10;;;5.20;;
3563;SDS011;1796;52.388;13.096;2023-11-21T13:36:21;15.93;;;7.80;;
3563;SDS011;1796;52.388;13.096;2023-11-21T13:38:49;15.63;;;6.77;;
3563;SDS011;1796;52.388;13.096;2023-11-21T13:41:18;11.67;;;7.53;;
3563;SDS011;1796;52.388;13.096;2023-11-21T13:43:53;19.50;;;9.40;;
3563;SDS011;1796;52.388;13.096;2023-11-21T13:46:28;13.40;;;7.10;;
3563;SDS011;1796;52.388;13.096;2023-11-21T13:49:02;17.73;;;7.20;;
3563;SDS011;1796;52.388;13.096;2023-11-21T13:51:30;8.93;;;5.83;;
3563;SDS011;1796;52.388;13.096;2023-11-21T13:54:04;11.93;;;6.30;;
3563;SDS011;1796;52.388;13.096;2023-11-21T13:56:35;9.07;;;6.03;;
3563;SDS011;1796;52.388;13.096;2023-11-21T13:59:03;9.43;;;6.00;;
3563;SDS011;1796;52.388;13.096;2023-11-21T14:01:39;9.63;;;6.93;;
3563;SDS011;1796;52.388;13.096;2023-11-21T14:04:20;8.07;;;5.77;;
3563;SDS011;1796;52.388;13.096;2023-11-21T14:07:00;6.97;;;5.37;;
3563;SDS011;1796;52.388;13.096;2023-11-21T14:09:48;7.70;;;6.53;;
3563;SDS011;1796;52.388;13.096;2023-11-21T14:12:16;10.93;;;7.03;;
3563;SDS011;1796;52.388;13.096;2023-11-21T14:14:43;11.90;;;7.03;;
3563;SDS011;1796;52.388;13.096;2023-11-21T14:17:12;12.13;;;7.20;;
3563;SDS011;1796;52.388;13.096;2023-11-21T14:19:39;11.30;;;6.90;;
3563;SDS011;1796;52.388;13.096;2023-11-21T14:22:08;12.43;;;7.40;;
3563;SDS011;1796;52.388;13.096;2023-11-21T14:24:35;15.13;;;8.27;;
3563;SDS011;1796;52.388;13.096;2023-11-21T14:27:06;12.37;;;7.50;;
3563;SDS011;1796;52.388;13.096;2023-11-21T14:29:35;15.47;;;8.27;;
3563;SDS011;1796;52.388;13.096;2023-11-21T14:32:04;12.20;;;7.23;;
3563;SDS011;1796;52.388;13.096;2023-11-21T14:34:31;13.70;;;7.33;;
3563;SDS011;1796;52.388;13.096;2023-11-21T14:36:58;10.30;;;7.47;;
3563;SDS011;1796;52.388;13.096;2023-11-21T14:39:28;13.00;;;8.60;;
3563;SDS011;1796;52.388;13.096;2023-11-21T14:41:55;14.27;;;9.17;;
3563;SDS011;1796;52.388;13.096;2023-11-21T14:44:24;14.97;;;9.80;;
3563;SDS011;1796;52.388;13.096;2023-11-21T14:46:55;15.57;;;9.67;;
3563;SDS011;1796;52.388;13.096;2023-11-21T14:49:23;16.00;;;9.23;;
3563;SDS011;1796;52.388;13.096;2023-11-21T14:51:52;20.90;;;9.83;;
3563;SDS011;1796;52.388;13.096;2023-11-21T14:54:25;26.93;;;9.77;;
3563;SDS011;1796;52.388;13.096;2023-11-21T14:57:05;20.33;;;10.23;;
3563;SDS011;1796;52.388;13.096;2023-11-21T14:59:36;20.27;;;9.60;;
3563;SDS011;1796;52.388;13.096;2023-11-21T15:02:04;18.53;;;9.47;;
3563;SDS011;1796;52.388;13.096;2023-11-21T15:04:41;26.40;;;12.20;;
3563;SDS011;1796;52.388;13.096;2023-11-21T15:07:07;23.43;;;11.30;;